Time;durP1;ratioP1;P1;durP2;ratioP2;P2;SDS_P1;SDS_P2;PMS_P1;PMS_P2;Temp;Humidity;BMP_temperature;BMP_pressure;BME280_temperature;BME280_humidity;BME280_pressure;Samples;Min_cycle;Max_cycle;Signal;HPM_P1;HPM_P2
2022/08/16 00:00:53;;;;;;;6.32;4.97;;;;;;;21.33;65.08;100475.66;5252005;28;20086;-69
2022/08/16 00:03:25;;;;;;;6.57;4.68;;;;;;;21.39;64.91;100473.13;5255004;28;20100;-69
2022/08/16 00:05:56;;;;;;;12.03;6.33;;;;;;;21.34;64.90;100470.16;5255056;28;20564;-70
2022/08/16 00:08:27;;;;;;;6.55;5.80;;;;;;;21.38;64.99;100473.31;5255257;28;20032;-70
2022/08/16 00:10:59;;;;;;;8.52;5.63;;;;;;;21.38;65.00;100476.78;5254241;28;20501;-70
2022/08/16 00:13:32;;;;;;;6.30;4.85;;;;;;;21.27;65.51;100472.69;5254488;28;20021;-70
2022/08/16 00:16:04;;;;;;;12.05;5.50;;;;;;;21.10;66.66;100479.06;5255422;28;20028;-70
2022/08/16 00:18:36;;;;;;;9.27;5.63;;;;;;;21.23;66.48;100476.66;5254129;28;20089;-70
2022/08/16 00:21:07;;;;;;;12.02;6.25;;;;;;;20.90;68.48;100480.22;5254919;28;20036;-70
2022/08/16 00:23:38;;;;;;;10.77;5.88;;;;;;;21.07;67.08;100482.88;5253327;28;20044;-71
2022/08/16 00:26:10;;;;;;;10.90;5.72;;;;;;;21.10;66.82;100481.72;5254417;28;20029;-70
2022/08/16 00:28:41;;;;;;;10.13;6.00;;;;;;;21.15;66.72;100488.16;5254255;28;20029;-70
2022/08/16 00:31:12;;;;;;;9.15;5.43;;;;;;;21.15;66.76;100492.69;5253228;28;20023;-70
2022/08/16 00:33:44;;;;;;;8.48;5.95;;;;;;;20.97;67.74;100491.06;5252596;28;20025;-71
2022/08/16 00:36:15;;;;;;;12.00;7.07;;;;;;;20.99;67.91;100497.03;5254421;28;20028;-71
2022/08/16 00:38:46;;;;;;;10.33;7.47;;;;;;;21.07;67.36;100485.53;5253165;28;20048;-70
2022/08/16 00:41:18;;;;;;;13.30;7.45;;;;;;;21.19;66.98;100493.19;5254005;28;20049;-71
2022/08/16 00:43:51;;;;;;;13.98;7.20;;;;;;;21.08;67.77;100491.69;5252973;28;20034;-70
2022/08/16 00:46:35;;;;;;;13.80;6.43;;;;;;;21.00;67.82;100489.88;5254921;28;20500;-70
2022/08/16 00:49:07;;;;;;;;;;;;;;;21.40;64.83;100501.41;5254632;28;20021;-70
2022/08/16 00:51:40;;;;;;;13.20;6.53;;;;;;;21.08;67.60;100499.69;5254388;28;20012;-70
2022/08/16 00:54:12;;;;;;;13.63;7.30;;;;;;;21.02;67.49;100494.03;5253975;28;20390;-70
2022/08/16 00:56:47;;;;;;;10.03;7.13;;;;;;;20.95;68.49;100503.69;5253743;28;20032;-71
2022/08/16 00:59:23;;;;;;;9.63;6.70;;;;;;;20.91;68.77;100502.34;5254252;28;20029;-69
2022/08/16 01:01:55;;;;;;;9.37;7.13;;;;;;;20.64;69.96;100504.38;5253684;28;20033;-69
2022/08/16 01:04:27;;;;;;;12.82;7.18;;;;;;;20.73;69.64;100505.19;5253667;28;20060;-69
2022/08/16 01:07:01;;;;;;;16.77;6.57;;;;;;;20.59;70.13;100501.38;5253941;28;20067;-69
2022/08/16 01:09:37;;;;;;;11.30;6.72;;;;;;;20.77;69.51;100502.03;5253481;28;20028;-69
2022/08/16 01:12:09;;;;;;;9.43;7.33;;;;;;;20.46;71.01;100507.19;5318415;22;20046;-69
2022/08/16 01:14:49;;;;;;;12.70;7.30;;;;;;;20.73;69.85;100506.03;5316748;28;20027;-69
2022/08/16 01:17:22;;;;;;;13.97;7.80;;;;;;;20.47;71.84;100503.56;5316716;28;20012;-69
2022/08/16 01:19:59;;;;;;;11.63;7.87;;;;;;;20.37;73.37;100501.06;5316739;28;20240;-69
2022/08/16 01:22:40;;;;;;;14.13;7.70;;;;;;;20.41;73.04;100497.06;5315599;28;20060;-69
2022/08/16 01:25:18;;;;;;;16.97;8.33;;;;;;;20.35;73.58;100503.84;5303308;28;20085;-69
2022/08/16 01:27:56;;;;;;;10.23;7.40;;;;;;;20.46;72.32;100489.41;5316535;28;20019;-69
2022/08/16 01:30:35;;;;;;;18.00;9.10;;;;;;;20.39;73.53;100504.38;5315646;28;20032;-70
2022/08/16 01:33:08;;;;;;;12.40;7.63;;;;;;;20.13;74.76;100500.03;5315771;28;20020;-69
2022/08/16 01:35:39;;;;;;;13.57;8.43;;;;;;;20.46;73.17;100509.84;5314875;28;20081;-69
2022/08/16 01:38:26;;;;;;;14.07;9.10;;;;;;;20.47;73.14;100501.72;5297287;28;20191;-69
2022/08/16 01:41:02;;;;;;;8.77;7.83;;;;;;;20.29;73.82;100501.88;5315739;28;20403;-69
2022/08/16 01:43:36;;;;;;;23.47;9.17;;;;;;;20.37;73.34;100501.06;5315769;28;20024;-69
2022/08/16 01:46:20;;;;;;;12.90;9.18;;;;;;;20.49;72.32;100502.38;5316522;28;20553;-69
2022/08/16 01:48:58;;;;;;;8.98;8.07;;;;;;;20.52;72.16;100507.38;5316616;28;20495;-69
2022/08/16 01:51:30;;;;;;;11.57;9.03;;;;;;;20.42;72.73;100504.06;5315664;28;20027;-68
2022/08/16 01:54:02;;;;;;;14.47;9.00;;;;;;;20.35;73.14;100497.72;5314994;28;20023;-69
2022/08/16 01:56:34;;;;;;;11.43;8.47;;;;;;;20.26;73.04;100489.75;5314598;28;20090;-69
2022/08/16 01:59:08;;;;;;;15.17;8.97;;;;;;;20.26;73.93;100507.53;5316551;28;20055;-69
2022/08/16 02:01:40;;;;;;;13.53;9.00;;;;;;;19.85;76.40;100508.22;5316119;28;20616;-69
2022/08/16 02:04:11;;;;;;;12.17;9.57;;;;;;;19.98;75.67;100507.78;5315161;28;20111;-69
2022/08/16 02:06:43;;;;;;;11.73;9.50;;;;;;;20.15;74.13;100509.50;5315658;28;20034;-69
2022/08/16 02:09:15;;;;;;;12.80;9.80;;;;;;;20.01;74.82;100510.09;5314280;28;20110;-70
2022/08/16 02:11:51;;;;;;;13.10;9.33;;;;;;;20.07;74.54;100512.97;5315199;28;20692;-69
2022/08/16 02:14:26;;;;;;;15.47;9.93;;;;;;;20.15;74.34;100514.81;5303314;28;20059;-68
2022/08/16 02:17:00;;;;;;;11.77;10.60;;;;;;;19.99;74.38;100504.94;5314305;28;20024;-69
2022/08/16 02:19:35;;;;;;;14.07;10.63;;;;;;;19.96;75.20;100510.59;5314856;28;20027;-69
2022/08/16 02:22:09;;;;;;;15.53;10.43;;;;;;;19.99;74.50;100501.47;5314263;28;20024;-69
2022/08/16 02:24:41;;;;;;;16.10;11.37;;;;;;;19.98;75.03;100511.28;5312811;28;20114;-69
2022/08/16 02:27:13;;;;;;;12.87;11.53;;;;;;;19.88;75.54;100510.59;5314273;28;20115;-69
2022/08/16 02:29:44;;;;;;;14.13;10.90;;;;;;;19.80;76.38;100508.72;5314243;28;20081;-69
2022/08/16 02:32:16;;;;;;;15.10;11.27;;;;;;;19.80;76.55;100506.91;5314523;28;20097;-70
2022/08/16 02:34:47;;;;;;;13.57;10.73;;;;;;;19.73;76.73;100511.19;5314375;28;20031;-70
2022/08/16 02:37:18;;;;;;;13.00;11.73;;;;;;;19.79;76.80;100496.44;5314238;28;20027;-69
2022/08/16 02:39:50;;;;;;;13.57;10.97;;;;;;;19.67;77.33;100496.72;5312705;28;20088;-69
2022/08/16 02:42:21;;;;;;;15.20;10.80;;;;;;;19.76;76.64;100504.75;5314385;28;20042;-69
2022/08/16 02:44:52;;;;;;;13.13;10.47;;;;;;;19.66;77.47;100500.38;5314877;28;20024;-69
2022/08/16 02:47:24;;;;;;;15.00;11.47;;;;;;;19.56;78.61;100503.19;5314082;28;20076;-69
2022/08/16 02:49:55;;;;;;;18.27;11.93;;;;;;;19.55;78.82;100498.84;5314709;28;20077;-69
2022/08/16 02:52:26;;;;;;;14.47;12.13;;;;;;;19.60;78.37;100493.06;5313550;28;20032;-69
2022/08/16 02:54:58;;;;;;;16.27;11.40;;;;;;;19.61;78.85;100485.91;5313516;28;20122;-69
2022/08/16 02:57:29;;;;;;;15.30;11.40;;;;;;;19.54;78.84;100493.69;5314168;28;20124;-69
2022/08/16 03:00:07;;;;;;;18.67;12.07;;;;;;;19.57;79.06;100491.56;5314139;28;20043;-69
2022/08/16 03:02:40;;;;;;;14.23;11.53;;;;;;;19.52;79.78;100493.84;5313954;28;20027;-68
2022/08/16 03:05:14;;;;;;;15.13;12.50;;;;;;;19.50;79.77;100490.53;5314074;28;20024;-69
2022/08/16 03:07:45;;;;;;;12.85;11.50;;;;;;;19.60;79.24;100487.75;5314182;28;20022;-69
2022/08/16 03:10:18;;;;;;;15.63;11.53;;;;;;;19.65;78.77;100487.25;5269884;28;1182792;-69
2022/08/16 03:12:49;;;;;;;14.10;11.87;;;;;;;19.54;79.80;100489.22;5315036;28;20024;-69
2022/08/16 03:15:21;;;;;;;16.70;12.13;;;;;;;19.54;80.02;100483.06;5314316;28;20463;-69
2022/08/16 03:17:52;;;;;;;13.00;11.80;;;;;;;19.48;80.20;100487.19;5314159;28;20023;-69
2022/08/16 03:20:24;;;;;;;12.57;11.17;;;;;;;19.36;80.05;100472.56;5313581;28;20039;-69
2022/08/16 03:22:56;;;;;;;14.07;12.33;;;;;;;19.44;80.22;100491.16;5314457;28;20035;-68
2022/08/16 03:25:28;;;;;;;13.77;11.63;;;;;;;19.37;81.02;100490.13;5313827;28;20031;-69
2022/08/16 03:27:59;;;;;;;16.00;11.73;;;;;;;19.45;80.78;100484.84;5314616;28;20059;-68
2022/08/16 03:30:32;;;;;;;16.13;11.20;;;;;;;19.28;82.68;100490.09;5314113;28;20023;-69
2022/08/16 03:33:04;;;;;;;13.82;12.23;;;;;;;19.36;81.93;100489.28;5314657;28;20540;-70
2022/08/16 03:35:37;;;;;;;12.93;11.57;;;;;;;19.39;81.60;100501.44;5313821;28;20099;-69
2022/08/16 03:38:11;;;;;;;14.50;13.00;;;;;;;19.35;81.56;100495.59;5316716;28;20032;-70
2022/08/16 03:40:42;;;;;;;14.40;12.65;;;;;;;19.15;83.15;100497.66;5318233;28;20031;-69
2022/08/16 03:43:14;;;;;;;13.87;11.90;;;;;;;19.24;82.71;100502.03;5318299;28;20034;-70
2022/08/16 03:45:45;;;;;;;15.10;12.63;;;;;;;19.31;82.11;100499.56;5318679;28;20111;-69
2022/08/16 03:48:16;;;;;;;13.50;11.73;;;;;;;19.19;83.03;100494.53;5318332;28;20023;-69
2022/08/16 03:50:48;;;;;;;15.93;13.53;;;;;;;19.24;83.34;100507.31;5310701;28;20035;-69
2022/08/16 03:53:20;;;;;;;15.70;13.63;;;;;;;19.29;83.23;100510.34;5314186;28;20507;-69
2022/08/16 03:55:51;;;;;;;15.40;12.87;;;;;;;19.15;84.16;100505.63;5317369;28;20069;-69
2022/08/16 03:58:22;;;;;;;15.60;14.17;;;;;;;19.17;84.35;100511.59;5317863;28;20617;-69
2022/08/16 04:00:54;;;;;;;18.37;13.93;;;;;;;19.17;84.63;100524.88;5309279;28;20515;-69
2022/08/16 04:03:25;;;;;;;16.73;14.60;;;;;;;19.08;85.18;100522.13;5311966;28;20899;-70
2022/08/16 04:05:57;;;;;;;16.77;13.40;;;;;;;19.01;85.65;100517.63;5309383;28;20073;-70
2022/08/16 04:08:30;;;;;;;18.90;15.60;;;;;;;19.09;85.60;100528.28;5313490;28;20546;-70
2022/08/16 04:11:02;;;;;;;16.57;14.83;;;;;;;19.01;86.71;100529.06;5318472;28;20055;-70
2022/08/16 04:13:34;;;;;;;16.00;14.43;;;;;;;18.90;87.72;100537.28;5317249;28;20491;-70
2022/08/16 04:16:06;;;;;;;17.60;15.50;;;;;;;18.65;91.03;100537.06;5318178;28;20032;-70
2022/08/16 04:18:37;;;;;;;15.90;14.23;;;;;;;18.89;89.69;100532.94;5317401;28;20036;-70
2022/08/16 04:21:09;;;;;;;17.43;14.77;;;;;;;18.69;91.56;100533.16;5318459;28;20471;-70
2022/08/16 04:23:40;;;;;;;16.10;14.37;;;;;;;18.90;89.15;100529.31;5309662;28;20028;-70
2022/08/16 04:26:12;;;;;;;19.43;15.83;;;;;;;18.94;89.68;100535.97;5300475;28;20024;-70
2022/08/16 04:28:43;;;;;;;17.37;15.53;;;;;;;18.86;90.64;100537.59;5302581;28;20276;-71
2022/08/16 04:31:14;;;;;;;16.90;15.13;;;;;;;-150.27;100.00;61272.81;5296596;28;20388;-71
2022/08/16 04:33:46;;;;;;;22.63;16.80;;;;;;;18.86;89.84;100526.97;5296819;28;20540;-70
2022/08/16 04:36:18;;;;;;;20.23;17.47;;;;;;;18.68;92.56;100534.94;5307284;28;20072;-70
2022/08/16 04:38:49;;;;;;;18.63;16.20;;;;;;;18.63;93.15;100523.97;5316694;28;20034;-70
2022/08/16 04:41:21;;;;;;;17.43;15.67;;;;;;;18.88;91.34;100539.25;5309429;28;20027;-71
2022/08/16 04:43:52;;;;;;;18.73;15.93;;;;;;;18.65;93.50;100529.13;5310408;28;20388;-70
2022/08/16 04:46:24;;;;;;;24.30;16.93;;;;;;;18.70;93.66;100532.16;5311512;28;20032;-71
2022/08/16 04:48:55;;;;;;;18.53;16.53;;;;;;;18.61;95.17;100545.34;5310299;28;20676;-70
2022/08/16 04:51:27;;;;;;;19.40;16.73;;;;;;;18.69;94.39;100541.09;5308459;27;20092;-70
2022/08/16 04:53:58;;;;;;;18.60;16.60;;;;;;;18.83;93.29;100542.38;5316595;28;20028;-69
2022/08/16 04:56:29;;;;;;;18.53;16.63;;;;;;;18.68;94.63;100528.81;5317253;28;20032;-69
2022/08/16 04:59:01;;;;;;;19.50;16.63;;;;;;;18.57;96.47;100538.66;5317000;28;20501;-70
2022/08/16 05:01:34;;;;;;;17.97;16.07;;;;;;;18.87;94.25;100554.31;5317349;28;20640;-70
2022/08/16 05:04:05;;;;;;;20.07;16.70;;;;;;;18.80;95.12;100548.81;5316849;28;20032;-70
2022/08/16 05:06:37;;;;;;;18.27;15.87;;;;;;;18.94;93.89;100546.56;5317311;28;20061;-70
2022/08/16 05:09:08;;;;;;;20.90;17.90;;;;;;;18.99;93.23;100546.94;5311400;28;20039;-70
2022/08/16 05:11:39;;;;;;;18.67;16.67;;;;;;;18.83;94.95;100545.03;5309163;28;20044;-69
2022/08/16 05:14:11;;;;;;;18.50;16.50;;;;;;;18.97;93.22;100548.94;5309062;28;20098;-69
2022/08/16 05:16:43;;;;;;;18.97;16.93;;;;;;;18.94;93.69;100549.22;5314597;28;20019;-68
2022/08/16 05:19:14;;;;;;;20.80;16.90;;;;;;;18.93;92.74;100550.22;5307041;28;20173;-71
2022/08/16 05:21:46;;;;;;;21.10;16.30;;;;;;;19.04;91.56;100557.13;5312434;27;20119;-69
2022/08/16 05:24:17;;;;;;;17.17;15.13;;;;;;;18.97;91.37;100548.94;5306562;28;20547;-69
2022/08/16 05:26:48;;;;;;;21.20;15.57;;;;;;;19.07;90.76;100565.59;5315768;28;20023;-70
2022/08/16 05:29:19;;;;;;;20.37;14.93;;;;;;;19.07;90.67;100565.59;5315036;28;20039;-70
2022/08/16 05:31:51;;;;;;;21.20;16.33;;;;;;;19.08;89.98;100564.59;5316663;28;20036;-70
2022/08/16 05:34:23;;;;;;;17.50;15.63;;;;;;;19.03;90.56;100569.53;5316703;28;20043;-67
2022/08/16 05:36:56;;;;;;;19.37;15.20;;;;;;;18.98;90.86;100555.91;5314030;28;20189;-69
2022/08/16 05:39:27;;;;;;;17.17;15.37;;;;;;;19.07;90.29;100573.56;5315662;28;20532;-69
2022/08/16 05:41:58;;;;;;;16.63;14.93;;;;;;;19.03;90.61;100572.19;5316286;28;20031;-69
2022/08/16 05:44:30;;;;;;;20.53;14.97;;;;;;;19.05;90.25;100578.19;5311070;28;20074;-69
2022/08/16 05:47:01;;;;;;;19.07;15.23;;;;;;;19.04;90.75;100575.69;5308902;28;20419;-69
2022/08/16 05:49:33;;;;;;;20.27;15.40;;;;;;;19.01;91.08;100586.63;5305895;28;20804;-68
2022/08/16 05:52:04;;;;;;;16.30;14.67;;;;;;;19.19;88.81;100589.25;5308899;28;20047;-69
2022/08/16 05:54:35;;;;;;;17.27;15.57;;;;;;;19.14;89.79;100586.22;5309610;28;20020;-69
2022/08/16 05:57:07;;;;;;;18.27;14.43;;;;;;;19.10;91.08;100581.22;5307769;28;20020;-69
2022/08/16 05:59:38;;;;;;;20.90;15.00;;;;;;;19.20;88.46;100580.31;5312485;28;20058;-70
2022/08/16 06:02:09;;;;;;;17.03;15.20;;;;;;;19.21;87.98;100580.16;5309245;28;20027;-69
2022/08/16 06:04:41;;;;;;;17.50;15.60;;;;;;;19.15;88.20;100586.06;5310689;28;20031;-69
2022/08/16 06:07:12;;;;;;;20.30;16.10;;;;;;;19.24;87.58;100586.97;5314073;28;20423;-70
2022/08/16 06:09:44;;;;;;;16.57;14.87;;;;;;;19.34;86.74;100593.00;5314429;28;20080;-70
2022/08/16 06:12:15;;;;;;;17.03;14.57;;;;;;;19.29;86.23;100584.69;5311851;28;20079;-70
2022/08/16 06:14:46;;;;;;;17.77;15.83;;;;;;;19.31;86.01;100592.47;5308749;28;20065;-70
2022/08/16 06:17:18;;;;;;;18.40;14.90;;;;;;;19.30;85.80;100596.97;5313154;28;20066;-71
2022/08/16 06:19:49;;;;;;;17.27;15.37;;;;;;;19.38;85.69;100598.00;5314816;28;20061;-71
2022/08/16 06:22:21;;;;;;;17.03;14.63;;;;;;;19.34;84.86;100598.31;5314647;28;20027;-70
2022/08/16 06:24:53;;;;;;;18.87;14.93;;;;;;;19.42;83.86;100599.38;5314647;28;20028;-70
2022/08/16 06:27:24;;;;;;;16.67;14.33;;;;;;;19.43;83.11;100598.34;5314755;28;20574;-70
2022/08/16 06:29:56;;;;;;;23.73;15.43;;;;;;;19.46;83.31;100600.72;5314996;28;20111;-70
2022/08/16 06:32:27;;;;;;;21.63;15.10;;;;;;;19.54;82.93;100610.56;5315041;28;20030;-71
2022/08/16 06:34:59;;;;;;;17.17;15.20;;;;;;;19.50;82.36;100598.56;5314810;28;20023;-71
2022/08/16 06:37:30;;;;;;;19.10;14.90;;;;;;;19.58;82.10;100617.22;5313377;28;20027;-71
2022/08/16 06:40:03;;;;;;;16.93;15.13;;;;;;;19.58;81.56;100610.06;5314010;28;20502;-71
2022/08/16 06:42:34;;;;;;;18.63;16.73;;;;;;;19.61;81.55;100608.09;5314968;28;20466;-71
2022/08/16 06:45:06;;;;;;;17.63;15.83;;;;;;;19.68;81.65;100604.66;5313203;28;20039;-71
2022/08/16 06:47:37;;;;;;;19.63;13.90;;;;;;;19.73;81.05;100601.53;5314644;28;20463;-71
2022/08/16 06:50:10;;;;;;;16.70;15.00;;;;;;;19.77;80.82;100616.16;5314966;28;20035;-71
2022/08/16 06:52:42;;;;;;;19.23;14.60;;;;;;;19.82;80.42;100613.03;5313529;28;20040;-71
2022/08/16 06:55:15;;;;;;;18.77;15.53;;;;;;;19.86;80.37;100608.22;5311401;28;20031;-71
2022/08/16 06:57:47;;;;;;;15.00;13.50;;;;;;;19.93;79.81;100606.59;5311469;28;20055;-71
2022/08/16 07:00:19;;;;;;;19.07;15.37;;;;;;;20.02;79.28;100610.13;5314300;28;20028;-71
2022/08/16 07:02:52;;;;;;;17.07;15.17;;;;;;;20.06;78.76;100614.97;5313717;28;20032;-71
2022/08/16 07:05:23;;;;;;;16.60;14.83;;;;;;;20.17;78.98;100616.53;5314361;28;20039;-71
2022/08/16 07:07:55;;;;;;;17.37;14.53;;;;;;;20.23;77.52;100623.00;5314252;28;20028;-71
2022/08/16 07:10:27;;;;;;;16.33;14.67;;;;;;;20.27;77.22;100623.50;5314161;28;20028;-71
2022/08/16 07:12:58;;;;;;;16.17;14.00;;;;;;;20.39;77.12;100618.72;5314984;28;20027;-71
2022/08/16 07:15:30;;;;;;;17.70;14.00;;;;;;;20.48;76.28;100620.41;5312939;28;20024;-71
2022/08/16 07:18:02;;;;;;;15.87;14.27;;;;;;;20.62;75.00;100623.41;5313752;28;20034;-71
2022/08/16 07:20:33;;;;;;;15.97;14.47;;;;;;;20.74;74.40;100618.59;5314497;28;20035;-71
2022/08/16 07:23:06;;;;;;;15.83;13.90;;;;;;;20.87;73.87;100624.28;5313332;28;20059;-71
2022/08/16 07:25:37;;;;;;;15.98;14.07;;;;;;;21.07;72.71;100625.81;5314885;28;20031;-71
2022/08/16 07:28:15;;;;;;;18.07;12.87;;;;;;;21.31;71.34;100630.25;5314171;28;20032;-71
2022/08/16 07:30:47;;;;;;;15.27;13.02;;;;;;;21.56;70.26;100638.22;5313241;28;20034;-71
2022/08/16 07:33:18;;;;;;;15.77;13.37;;;;;;;21.79;69.28;100623.34;5314558;28;20434;-71
2022/08/16 07:35:49;;;;;;;16.50;13.23;;;;;;;22.12;67.94;100631.22;5312924;28;20129;-71
2022/08/16 07:38:21;;;;;;;17.13;12.35;;;;;;;22.47;66.36;100623.72;5313306;28;20028;-70
2022/08/16 07:40:56;;;;;;;15.57;13.50;;;;;;;22.82;65.00;100635.84;5312363;28;20151;-71
2022/08/16 07:43:27;;;;;;;13.13;11.07;;;;;;;23.44;63.54;100642.00;5313725;28;20031;-71
2022/08/16 07:45:59;;;;;;;17.42;11.95;;;;;;;23.94;61.78;100654.00;5314243;28;20388;-71
2022/08/16 07:48:30;;;;;;;14.63;10.93;;;;;;;24.35;59.23;100649.97;5313150;28;20118;-71
2022/08/16 07:51:02;;;;;;;16.10;10.50;;;;;;;24.67;58.39;100662.25;5314244;28;20044;-71
2022/08/16 07:53:33;;;;;;;12.35;10.73;;;;;;;24.95;56.75;100632.88;5312314;28;20027;-71
2022/08/16 07:56:05;;;;;;;12.05;10.25;;;;;;;25.72;55.29;100652.81;5314645;28;20102;-73
2022/08/16 07:58:36;;;;;;;19.30;10.65;;;;;;;25.64;54.15;100655.63;5313439;28;20102;-71
2022/08/16 08:01:08;;;;;;;12.77;9.02;;;;;;;25.57;54.67;100658.25;5314123;28;20084;-71
2022/08/16 08:03:42;;;;;;;16.45;9.50;;;;;;;25.12;54.46;100656.69;5313690;28;20763;-71
2022/08/16 08:06:15;;;;;;;13.18;9.88;;;;;;;24.94;54.56;100657.19;5311991;28;20494;-71
2022/08/16 08:08:46;;;;;;;16.85;9.68;;;;;;;24.73;55.50;100658.81;5313119;28;20059;-71
2022/08/16 08:11:18;;;;;;;12.90;9.30;;;;;;;24.65;55.80;100660.59;5313084;28;20063;-70
2022/08/16 08:13:51;;;;;;;20.65;9.45;;;;;;;24.63;55.74;100656.44;5314437;28;20471;-71
2022/08/16 08:16:23;;;;;;;17.45;11.20;;;;;;;24.62;55.39;100671.69;5314005;28;20052;-71
2022/08/16 08:18:55;;;;;;;12.63;8.80;;;;;;;24.62;55.41;100670.84;5313653;28;20036;-71
2022/08/16 08:21:26;;;;;;;12.65;10.27;;;;;;;24.45;55.19;100662.22;5313836;28;20027;-71
2022/08/16 08:23:57;;;;;;;17.88;8.95;;;;;;;24.62;55.70;100676.19;5315176;28;20063;-71
2022/08/16 08:26:28;;;;;;;13.50;9.30;;;;;;;24.53;55.81;100675.50;5317106;28;20495;-71
2022/08/16 08:29:00;;;;;;;11.55;9.85;;;;;;;24.54;56.38;100669.13;5317576;28;20387;-71
2022/08/16 08:31:31;;;;;;;15.30;8.90;;;;;;;24.61;55.83;100670.00;5316382;28;20418;-71
2022/08/16 08:34:03;;;;;;;11.05;8.98;;;;;;;24.72;55.56;100673.19;5317704;28;20062;-71
2022/08/16 08:36:35;;;;;;;12.95;9.30;;;;;;;24.59;55.16;100671.22;5317236;28;20024;-71
2022/08/16 08:39:06;;;;;;;14.82;9.27;;;;;;;24.67;54.22;100670.28;5314858;28;20456;-70
2022/08/16 08:41:37;;;;;;;12.70;9.07;;;;;;;24.65;54.08;100675.81;5316783;28;20564;-71
2022/08/16 08:44:10;;;;;;;13.52;8.70;;;;;;;24.73;54.01;100677.56;5317492;28;20395;-71
2022/08/16 08:46:41;;;;;;;13.20;8.07;;;;;;;24.81;54.21;100673.91;5317063;28;20039;-70
2022/08/16 08:49:13;;;;;;;12.40;7.60;;;;;;;24.90;53.39;100662.06;5317404;28;20524;-71
2022/08/16 08:51:44;;;;;;;10.45;7.38;;;;;;;25.02;53.14;100673.09;5317424;28;20077;-71
2022/08/16 08:54:15;;;;;;;17.27;7.75;;;;;;;25.15;53.28;100675.09;5315924;28;20035;-71
2022/08/16 08:56:47;;;;;;;12.20;6.20;;;;;;;25.21;52.89;100676.97;5316815;28;20043;-71
2022/08/16 08:59:18;;;;;;;8.30;6.70;;;;;;;25.34;50.73;100678.91;5316506;28;20675;-71
2022/08/16 09:01:50;;;;;;;10.98;7.22;;;;;;;25.28;51.01;100678.88;5315053;28;20031;-71
2022/08/16 09:04:21;;;;;;;8.15;6.75;;;;;;;25.46;50.49;100681.91;5316794;28;20031;-71
2022/08/16 09:06:54;;;;;;;7.47;6.22;;;;;;;25.66;50.13;100680.41;5317157;28;20024;-71
2022/08/16 09:09:25;;;;;;;11.73;6.20;;;;;;;25.74;49.70;100686.44;5315729;28;20081;-71
2022/08/16 09:11:57;;;;;;;9.65;6.28;;;;;;;25.88;49.59;100683.84;5316830;28;20051;-71
2022/08/16 09:14:28;;;;;;;8.13;5.70;;;;;;;25.77;49.09;100679.00;5316140;28;20058;-71
2022/08/16 09:17:00;;;;;;;10.82;6.10;;;;;;;25.72;48.49;100685.81;5317379;27;20031;-71
2022/08/16 09:19:32;;;;;;;10.20;7.05;;;;;;;25.68;48.08;100691.75;5316204;28;20123;-71
2022/08/16 09:22:05;;;;;;;10.57;6.00;;;;;;;25.64;48.48;100698.53;5316350;28;20042;-71
2022/08/16 09:24:36;;;;;;;10.23;6.55;;;;;;;25.70;47.85;100695.91;5315564;28;20031;-71
2022/08/16 09:27:07;;;;;;;11.13;5.82;;;;;;;25.68;48.16;100689.06;5316122;28;20023;-71
2022/08/16 09:29:39;;;;;;;10.27;5.32;;;;;;;26.08;47.51;100694.66;5315298;28;20024;-71
2022/08/16 09:32:10;;;;;;;10.15;6.30;;;;;;;25.94;47.66;100687.56;5316322;28;20174;-71
2022/08/16 09:34:42;;;;;;;11.77;4.88;;;;;;;26.06;47.51;100688.66;5296497;28;20651;-71
2022/08/16 09:37:14;;;;;;;13.05;5.68;;;;;;;26.45;47.43;100693.59;5294230;28;20024;-71
2022/08/16 09:39:46;;;;;;;9.38;5.20;;;;;;;26.36;46.71;100694.81;5294635;28;20107;-71
2022/08/16 09:42:17;;;;;;;11.18;4.75;;;;;;;26.48;45.21;100698.53;5294252;28;20115;-71
2022/08/16 09:44:48;;;;;;;6.18;3.90;;;;;;;26.68;45.00;100693.25;5296481;28;20046;-71
2022/08/16 09:47:20;;;;;;;7.88;4.78;;;;;;;26.58;44.06;100696.28;5316161;28;20034;-70
2022/08/16 09:49:51;;;;;;;9.45;4.80;;;;;;;26.66;43.99;100692.59;5315580;28;20031;-68
2022/08/16 09:52:22;;;;;;;9.93;4.30;;;;;;;26.77;44.16;100687.66;5313250;28;20039;-77
2022/08/16 09:54:54;;;;;;;7.40;4.38;;;;;;;26.82;42.66;100693.25;5307669;28;20177;-86
2022/08/16 09:57:26;;;;;;;8.02;3.72;;;;;;;26.88;42.13;100697.78;5295198;28;20028;-82
2022/08/16 09:59:59;;;;;;;6.50;3.22;;;;;;;27.04;41.28;100701.97;5311266;28;20020;-75
2022/08/16 10:02:30;;;;;;;;;;;;;;;27.20;42.97;100705.28;5315184;28;20051;-76
2022/08/16 10:05:02;;;;;;;10.00;3.70;;;;;;;27.54;41.14;100699.91;5316992;28;20456;-76
2022/08/16 10:07:34;;;;;;;8.70;3.65;;;;;;;27.17;40.57;100697.66;5316113;27;20028;-76
2022/08/16 10:10:05;;;;;;;4.78;3.33;;;;;;;27.38;40.58;100690.41;5315505;28;20042;-75
2022/08/16 10:15:27;;;;;;;5.50;3.70;;;;;;;27.39;41.68;100683.97;5293585;28;20075;-76
2022/08/16 10:17:59;;;;;;;8.48;3.92;;;;;;;27.52;40.60;100702.81;5293638;28;20062;-71
2022/08/16 10:20:36;;;;;;;11.73;3.42;;;;;;;27.62;41.04;100701.53;5308469;28;20062;-72
2022/08/16 10:23:10;;;;;;;7.50;3.70;;;;;;;27.65;40.93;100701.09;5312062;28;20051;-72
2022/08/16 10:25:44;;;;;;;8.70;3.72;;;;;;;27.84;40.58;100699.44;5315006;27;20581;-72
2022/08/16 10:28:16;;;;;;;10.98;3.40;;;;;;;27.80;39.30;100692.84;5294426;28;20031;-73
2022/08/16 10:30:47;;;;;;;8.45;3.90;;;;;;;27.71;38.63;100689.56;5293313;28;20035;-71
2022/08/16 10:33:18;;;;;;;10.98;3.50;;;;;;;27.69;38.65;100702.34;5284216;28;20063;-73
2022/08/16 10:35:49;;;;;;;9.02;3.55;;;;;;;27.78;38.66;100701.13;5284986;28;20532;-70
2022/08/16 10:38:21;;;;;;;3.00;2.70;;;;;;;27.97;38.15;100703.97;5292777;28;20077;-75
2022/08/16 10:40:53;;;;;;;8.02;3.17;;;;;;;28.47;37.62;100702.53;5290815;28;20054;-76
2022/08/16 10:43:24;;;;;;;7.45;3.30;;;;;;;28.32;38.34;100700.09;5282566;28;20035;-83
2022/08/16 10:45:55;;;;;;;6.13;3.05;;;;;;;28.72;37.76;100693.69;5282522;28;20040;-76
2022/08/16 10:48:28;;;;;;;4.35;2.53;;;;;;;28.73;36.87;100698.00;5284489;28;20036;-77
2022/08/16 10:50:59;;;;;;;8.75;3.10;;;;;;;28.97;36.07;100708.22;5283685;28;20536;-76
2022/08/16 10:53:32;;;;;;;11.80;2.97;;;;;;;29.31;36.13;100707.97;5281782;28;20028;-76
2022/08/16 10:56:07;;;;;;;7.25;3.03;;;;;;;29.53;35.37;100702.16;5303317;28;20540;-76
2022/08/16 10:58:39;;;;;;;8.32;3.20;;;;;;;29.55;34.89;100700.88;5290765;28;20044;-78
2022/08/16 11:01:11;;;;;;;6.63;3.13;;;;;;;29.89;35.74;100710.53;5282294;28;20048;-69
2022/08/16 11:03:42;;;;;;;8.35;3.33;;;;;;;30.14;34.45;100709.63;5283897;28;20046;-70
2022/08/16 11:06:13;;;;;;;4.57;3.08;;;;;;;30.16;35.06;100712.91;5283114;28;20028;-72
2022/08/16 11:08:45;;;;;;;6.53;3.00;;;;;;;30.30;34.33;100716.31;5280015;28;20031;-74
2022/08/16 11:11:16;;;;;;;8.35;3.25;;;;;;;30.42;34.40;100716.34;5281437;28;20135;-70
2022/08/16 11:13:48;;;;;;;7.45;3.20;;;;;;;30.60;33.09;100720.88;5283166;28;20031;-73
2022/08/16 11:16:20;;;;;;;5.45;2.83;;;;;;;30.53;32.61;100718.25;5298750;27;20121;-72
2022/08/16 11:18:51;;;;;;;8.13;2.78;;;;;;;30.39;32.75;100714.13;5285131;28;20692;-73
2022/08/16 11:21:24;;;;;;;6.40;2.90;;;;;;;30.15;33.19;100725.59;5284602;28;20024;-72
2022/08/16 11:23:56;;;;;;;8.32;3.08;;;;;;;29.92;33.24;100720.88;5280763;28;20028;-72
2022/08/16 11:26:28;;;;;;;6.20;2.75;;;;;;;29.82;33.29;100724.09;5292287;28;20853;-75
2022/08/16 11:28:59;;;;;;;8.10;3.47;;;;;;;29.77;33.88;100719.38;5290246;28;20164;-75
2022/08/16 11:31:31;;;;;;;5.53;3.20;;;;;;;29.61;34.58;100723.47;5293472;28;20043;-76
2022/08/16 11:34:02;;;;;;;6.05;3.60;;;;;;;29.55;34.84;100716.25;5288293;28;20139;-73
2022/08/16 11:36:33;;;;;;;6.45;3.30;;;;;;;29.39;33.85;100737.38;5281295;28;20074;-76
2022/08/16 11:39:05;;;;;;;7.32;2.78;;;;;;;29.22;35.26;100740.59;5282163;28;20024;-73